sensor_id;sensor_type;location;lat;lon;timestamp;P1;durP1;ratioP1;P2;durP2;ratioP2
11533;SDS011;5823;50.588;8.462;2023-04-25T00:00:16;0.10;;;0.10;;
11533;SDS011;5823;50.588;8.462;2023-04-25T00:02:42;0.17;;;0.17;;
11533;SDS011;5823;50.588;8.462;2023-04-25T00:05:08;0.13;;;0.13;;
11533;SDS011;5823;50.588;8.462;2023-04-25T00:07:36;0.10;;;0.10;;
11533;SDS011;5823;50.588;8.462;2023-04-25T00:10:03;0.20;;;0.20;;
11533;SDS011;5823;50.588;8.462;2023-04-25T00:12:29;0.20;;;0.20;;
11533;SDS011;5823;50.588;8.462;2023-04-25T00:14:55;0.28;;;0.28;;
11533;SDS011;5823;50.588;8.462;2023-04-25T00:17:23;0.20;;;0.20;;
11533;SDS011;5823;50.588;8.462;2023-04-25T00:19:49;0.30;;;0.30;;
11533;SDS011;5823;50.588;8.462;2023-04-25T00:22:16;0.25;;;0.25;;
11533;SDS011;5823;50.588;8.462;2023-04-25T00:24:43;0.20;;;0.20;;
11533;SDS011;5823;50.588;8.462;2023-04-25T00:27:10;0.40;;;0.40;;
11533;SDS011;5823;50.588;8.462;2023-04-25T00:29:36;0.20;;;0.20;;
11533;SDS011;5823;50.588;8.462;2023-04-25T00:32:02;0.10;;;0.10;;
11533;SDS011;5823;50.588;8.462;2023-04-25T00:34:28;0.20;;;0.15;;
11533;SDS011;5823;50.588;8.462;2023-04-25T00:36:54;0.40;;;0.20;;
11533;SDS011;5823;50.588;8.462;2023-04-25T00:39:21;0.10;;;0.10;;
11533;SDS011;5823;50.588;8.462;2023-04-25T00:41:49;0.10;;;0.10;;
11533;SDS011;5823;50.588;8.462;2023-04-25T00:44:18;0.20;;;0.20;;
11533;SDS011;5823;50.588;8.462;2023-04-25T00:46:44;0.20;;;0.20;;
11533;SDS011;5823;50.588;8.462;2023-04-25T00:49:12;0.30;;;0.30;;
11533;SDS011;5823;50.588;8.462;2023-04-25T00:51:40;0.20;;;0.20;;
11533;SDS011;5823;50.588;8.462;2023-04-25T00:54:07;0.25;;;0.25;;
11533;SDS011;5823;50.588;8.462;2023-04-25T00:56:33;0.40;;;0.40;;
11533;SDS011;5823;50.588;8.462;2023-04-25T00:59:01;0.20;;;0.20;;
11533;SDS011;5823;50.588;8.462;2023-04-25T01:01:27;0.10;;;0.10;;
11533;SDS011;5823;50.588;8.462;2023-04-25T01:03:53;0.35;;;0.30;;
11533;SDS011;5823;50.588;8.462;2023-04-25T01:06:19;0.20;;;0.20;;
11533;SDS011;5823;50.588;8.462;2023-04-25T01:08:47;0.30;;;0.30;;
11533;SDS011;5823;50.588;8.462;2023-04-25T01:11:13;0.35;;;0.35;;
11533;SDS011;5823;50.588;8.462;2023-04-25T01:13:39;0.25;;;0.25;;
11533;SDS011;5823;50.588;8.462;2023-04-25T01:16:07;0.10;;;0.10;;
11533;SDS011;5823;50.588;8.462;2023-04-25T01:18:33;0.20;;;0.20;;
11533;SDS011;5823;50.588;8.462;2023-04-25T01:21:08;0.60;;;0.40;;
11533;SDS011;5823;50.588;8.462;2023-04-25T01:23:35;0.32;;;0.32;;
11533;SDS011;5823;50.588;8.462;2023-04-25T01:26:01;0.30;;;0.30;;
11533;SDS011;5823;50.588;8.462;2023-04-25T01:28:28;0.35;;;0.35;;
11533;SDS011;5823;50.588;8.462;2023-04-25T01:30:54;0.28;;;0.20;;
11533;SDS011;5823;50.588;8.462;2023-04-25T01:33:20;0.20;;;0.20;;
11533;SDS011;5823;50.588;8.462;2023-04-25T01:35:47;0.15;;;0.15;;
11533;SDS011;5823;50.588;8.462;2023-04-25T01:38:14;0.40;;;0.40;;
11533;SDS011;5823;50.588;8.462;2023-04-25T01:40:41;0.20;;;0.20;;
11533;SDS011;5823;50.588;8.462;2023-04-25T01:43:08;0.20;;;0.20;;
11533;SDS011;5823;50.588;8.462;2023-04-25T01:45:36;0.20;;;0.20;;
11533;SDS011;5823;50.588;8.462;2023-04-25T01:48:04;0.25;;;0.20;;
11533;SDS011;5823;50.588;8.462;2023-04-25T01:50:30;0.38;;;0.38;;
11533;SDS011;5823;50.588;8.462;2023-04-25T01:52:57;0.20;;;0.20;;
11533;SDS011;5823;50.588;8.462;2023-04-25T01:55:24;0.40;;;0.40;;
11533;SDS011;5823;50.588;8.462;2023-04-25T01:57:50;0.30;;;0.30;;
11533;SDS011;5823;50.588;8.462;2023-04-25T02:00:17;0.70;;;0.50;;
11533;SDS011;5823;50.588;8.462;2023-04-25T02:02:43;0.30;;;0.30;;
11533;SDS011;5823;50.588;8.462;2023-04-25T02:05:09;0.40;;;0.30;;
11533;SDS011;5823;50.588;8.462;2023-04-25T02:07:36;0.50;;;0.50;;
11533;SDS011;5823;50.588;8.462;2023-04-25T02:10:02;0.30;;;0.30;;
11533;SDS011;5823;50.588;8.462;2023-04-25T02:12:30;0.28;;;0.28;;
11533;SDS011;5823;50.588;8.462;2023-04-25T02:14:57;0.28;;;0.28;;
11533;SDS011;5823;50.588;8.462;2023-04-25T02:17:23;0.50;;;0.43;;
11533;SDS011;5823;50.588;8.462;2023-04-25T02:19:50;0.55;;;0.40;;
11533;SDS011;5823;50.588;8.462;2023-04-25T02:22:16;0.20;;;0.20;;
11533;SDS011;5823;50.588;8.462;2023-04-25T02:24:42;0.35;;;0.35;;
11533;SDS011;5823;50.588;8.462;2023-04-25T02:27:08;1.45;;;0.55;;
11533;SDS011;5823;50.588;8.462;2023-04-25T02:29:36;0.68;;;0.57;;
11533;SDS011;5823;50.588;8.462;2023-04-25T02:32:02;0.38;;;0.38;;
11533;SDS011;5823;50.588;8.462;2023-04-25T02:34:29;0.52;;;0.40;;
11533;SDS011;5823;50.588;8.462;2023-04-25T02:36:55;0.80;;;0.40;;
11533;SDS011;5823;50.588;8.462;2023-04-25T02:39:21;0.30;;;0.30;;
11533;SDS011;5823;50.588;8.462;2023-04-25T02:41:50;0.82;;;0.55;;
11533;SDS011;5823;50.588;8.462;2023-04-25T02:44:16;0.30;;;0.30;;
11533;SDS011;5823;50.588;8.462;2023-04-25T02:46:43;0.77;;;0.50;;
11533;SDS011;5823;50.588;8.462;2023-04-25T02:49:10;0.43;;;0.43;;
11533;SDS011;5823;50.588;8.462;2023-04-25T02:51:36;1.02;;;0.60;;
11533;SDS011;5823;50.588;8.462;2023-04-25T02:54:02;0.60;;;0.60;;
11533;SDS011;5823;50.588;8.462;2023-04-25T02:56:29;0.47;;;0.47;;
11533;SDS011;5823;50.588;8.462;2023-04-25T02:58:55;2.15;;;0.90;;
11533;SDS011;5823;50.588;8.462;2023-04-25T03:01:21;1.05;;;0.80;;
11533;SDS011;5823;50.588;8.462;2023-04-25T03:03:49;1.40;;;0.80;;
11533;SDS011;5823;50.588;8.462;2023-04-25T03:06:15;1.77;;;0.95;;
11533;SDS011;5823;50.588;8.462;2023-04-25T03:08:41;0.38;;;0.35;;
11533;SDS011;5823;50.588;8.462;2023-04-25T03:11:07;0.90;;;0.57;;
11533;SDS011;5823;50.588;8.462;2023-04-25T03:13:34;1.85;;;0.85;;
11533;SDS011;5823;50.588;8.462;2023-04-25T03:16:00;0.60;;;0.60;;
11533;SDS011;5823;50.588;8.462;2023-04-25T03:18:26;0.70;;;0.65;;
11533;SDS011;5823;50.588;8.462;2023-04-25T03:20:54;0.50;;;0.43;;
11533;SDS011;5823;50.588;8.462;2023-04-25T03:23:20;0.50;;;0.50;;
11533;SDS011;5823;50.588;8.462;2023-04-25T03:25:46;0.55;;;0.55;;
11533;SDS011;5823;50.588;8.462;2023-04-25T03:28:13;0.40;;;0.40;;
11533;SDS011;5823;50.588;8.462;2023-04-25T03:30:39;0.30;;;0.30;;
11533;SDS011;5823;50.588;8.462;2023-04-25T03:33:05;1.75;;;0.40;;
11533;SDS011;5823;50.588;8.462;2023-04-25T03:35:31;0.88;;;0.60;;
11533;SDS011;5823;50.588;8.462;2023-04-25T03:37:59;0.60;;;0.43;;
11533;SDS011;5823;50.588;8.462;2023-04-25T03:40:25;0.60;;;0.60;;
11533;SDS011;5823;50.588;8.462;2023-04-25T03:42:51;0.20;;;0.20;;
11533;SDS011;5823;50.588;8.462;2023-04-25T03:45:18;0.28;;;0.28;;
11533;SDS011;5823;50.588;8.462;2023-04-25T03:47:44;0.25;;;0.25;;
11533;SDS011;5823;50.588;8.462;2023-04-25T03:50:10;0.45;;;0.40;;
11533;SDS011;5823;50.588;8.462;2023-04-25T03:52:36;0.20;;;0.20;;
11533;SDS011;5823;50.588;8.462;2023-04-25T03:55:05;0.32;;;0.32;;
11533;SDS011;5823;50.588;8.462;2023-04-25T03:57:31;0.30;;;0.30;;
11533;SDS011;5823;50.588;8.462;2023-04-25T03:59:57;0.28;;;0.28;;
11533;SDS011;5823;50.588;8.462;2023-04-25T04:02:23;0.55;;;0.38;;
11533;SDS011;5823;50.588;8.462;2023-04-25T04:04:50;1.10;;;0.40;;
11533;SDS011;5823;50.588;8.462;2023-04-25T04:07:16;0.30;;;0.20;;
11533;SDS011;5823;50.588;8.462;2023-04-25T04:09:42;0.32;;;0.30;;
11533;SDS011;5823;50.588;8.462;2023-04-25T04:12:10;0.20;;;0.20;;
11533;SDS011;5823;50.588;8.462;2023-04-25T04:14:36;0.30;;;0.30;;
11533;SDS011;5823;50.588;8.462;2023-04-25T04:17:02;0.03;;;0.00;;
11533;SDS011;5823;50.588;8.462;2023-04-25T04:19:28;0.10;;;0.10;;
11533;SDS011;5823;50.588;8.462;2023-04-25T04:21:55;0.10;;;0.10;;
11533;SDS011;5823;50.588;8.462;2023-04-25T04:24:21;0.10;;;0.10;;
11533;SDS011;5823;50.588;8.462;2023-04-25T04:26:47;0.00;;;0.00;;
11533;SDS011;5823;50.588;8.462;2023-04-25T04:29:15;0.13;;;0.13;;
11533;SDS011;5823;50.588;8.462;2023-04-25T04:31:46;0.10;;;0.10;;
11533;SDS011;5823;50.588;8.462;2023-04-25T04:34:12;0.13;;;0.10;;
11533;SDS011;5823;50.588;8.462;2023-04-25T04:36:38;0.00;;;0.00;;
11533;SDS011;5823;50.588;8.462;2023-04-25T04:39:06;0.00;;;0.00;;
11533;SDS011;5823;50.588;8.462;2023-04-25T04:41:34;0.20;;;0.10;;
11533;SDS011;5823;50.588;8.462;2023-04-25T04:44:00;0.32;;;0.17;;
11533;SDS011;5823;50.588;8.462;2023-04-25T04:46:29;0.60;;;0.60;;
11533;SDS011;5823;50.588;8.462;2023-04-25T04:48:56;0.80;;;0.80;;
11533;SDS011;5823;50.588;8.462;2023-04-25T04:51:23;0.90;;;0.90;;
11533;SDS011;5823;50.588;8.462;2023-04-25T04:53:50;0.80;;;0.80;;
11533;SDS011;5823;50.588;8.462;2023-04-25T04:56:16;0.80;;;0.80;;
11533;SDS011;5823;50.588;8.462;2023-04-25T04:58:43;0.40;;;0.40;;
11533;SDS011;5823;50.588;8.462;2023-04-25T05:01:09;0.50;;;0.50;;
11533;SDS011;5823;50.588;8.462;2023-04-25T05:03:37;0.47;;;0.47;;
11533;SDS011;5823;50.588;8.462;2023-04-25T05:06:03;0.35;;;0.35;;
11533;SDS011;5823;50.588;8.462;2023-04-25T05:08:30;0.10;;;0.10;;
11533;SDS011;5823;50.588;8.462;2023-04-25T05:10:56;0.38;;;0.38;;
11533;SDS011;5823;50.588;8.462;2023-04-25T05:13:22;0.22;;;0.22;;
11533;SDS011;5823;50.588;8.462;2023-04-25T05:15:49;0.10;;;0.10;;
11533;SDS011;5823;50.588;8.462;2023-04-25T05:18:15;0.10;;;0.10;;
11533;SDS011;5823;50.588;8.462;2023-04-25T05:20:42;0.10;;;0.10;;
11533;SDS011;5823;50.588;8.462;2023-04-25T05:23:09;0.17;;;0.17;;
11533;SDS011;5823;50.588;8.462;2023-04-25T05:25:35;0.38;;;0.30;;
11533;SDS011;5823;50.588;8.462;2023-04-25T05:28:01;0.40;;;0.30;;
11533;SDS011;5823;50.588;8.462;2023-04-25T05:30:27;0.30;;;0.30;;
11533;SDS011;5823;50.588;8.462;2023-04-25T05:32:54;0.30;;;0.30;;
11533;SDS011;5823;50.588;8.462;2023-04-25T05:35:20;0.10;;;0.10;;
11533;SDS011;5823;50.588;8.462;2023-04-25T05:37:48;0.10;;;0.10;;
11533;SDS011;5823;50.588;8.462;2023-04-25T05:40:14;0.03;;;0.00;;
11533;SDS011;5823;50.588;8.462;2023-04-25T05:42:40;0.20;;;0.20;;
11533;SDS011;5823;50.588;8.462;2023-04-25T05:45:07;0.20;;;0.20;;
11533;SDS011;5823;50.588;8.462;2023-04-25T05:47:33;0.13;;;0.13;;
11533;SDS011;5823;50.588;8.462;2023-04-25T05:49:59;0.13;;;0.13;;
11533;SDS011;5823;50.588;8.462;2023-04-25T05:52:26;0.20;;;0.20;;
11533;SDS011;5823;50.588;8.462;2023-04-25T05:54:53;0.30;;;0.30;;
11533;SDS011;5823;50.588;8.462;2023-04-25T05:57:20;0.30;;;0.30;;
11533;SDS011;5823;50.588;8.462;2023-04-25T05:59:47;0.10;;;0.10;;
11533;SDS011;5823;50.588;8.462;2023-04-25T06:02:13;0.30;;;0.30;;
11533;SDS011;5823;50.588;8.462;2023-04-25T06:04:39;0.20;;;0.20;;
11533;SDS011;5823;50.588;8.462;2023-04-25T06:07:05;0.65;;;0.60;;
11533;SDS011;5823;50.588;8.462;2023-04-25T06:09:32;0.30;;;0.20;;
11533;SDS011;5823;50.588;8.462;2023-04-25T06:11:59;0.75;;;0.57;;
11533;SDS011;5823;50.588;8.462;2023-04-25T06:14:26;0.75;;;0.50;;
11533;SDS011;5823;50.588;8.462;2023-04-25T06:16:52;0.30;;;0.30;;
11533;SDS011;5823;50.588;8.462;2023-04-25T06:19:18;0.40;;;0.40;;
11533;SDS011;5823;50.588;8.462;2023-04-25T06:21:44;0.63;;;0.40;;
11533;SDS011;5823;50.588;8.462;2023-04-25T06:24:10;0.68;;;0.68;;
11533;SDS011;5823;50.588;8.462;2023-04-25T06:26:37;0.28;;;0.28;;
11533;SDS011;5823;50.588;8.462;2023-04-25T06:29:04;0.50;;;0.50;;
11533;SDS011;5823;50.588;8.462;2023-04-25T06:31:31;0.32;;;0.32;;
11533;SDS011;5823;50.588;8.462;2023-04-25T06:33:58;0.50;;;0.50;;
11533;SDS011;5823;50.588;8.462;2023-04-25T06:36:25;0.38;;;0.38;;
11533;SDS011;5823;50.588;8.462;2023-04-25T06:38:52;0.40;;;0.40;;
11533;SDS011;5823;50.588;8.462;2023-04-25T06:41:19;0.47;;;0.47;;
11533;SDS011;5823;50.588;8.462;2023-04-25T06:43:45;0.60;;;0.60;;
11533;SDS011;5823;50.588;8.462;2023-04-25T06:46:13;0.30;;;0.30;;
11533;SDS011;5823;50.588;8.462;2023-04-25T06:48:39;0.65;;;0.65;;
11533;SDS011;5823;50.588;8.462;2023-04-25T06:51:05;0.98;;;0.80;;
11533;SDS011;5823;50.588;8.462;2023-04-25T06:53:32;0.50;;;0.50;;
11533;SDS011;5823;50.588;8.462;2023-04-25T06:55:58;0.85;;;0.60;;
11533;SDS011;5823;50.588;8.462;2023-04-25T06:58:24;0.50;;;0.50;;
11533;SDS011;5823;50.588;8.462;2023-04-25T07:00:51;0.60;;;0.57;;
11533;SDS011;5823;50.588;8.462;2023-04-25T07:03:19;0.60;;;0.60;;
11533;SDS011;5823;50.588;8.462;2023-04-25T07:05:45;1.90;;;1.50;;
11533;SDS011;5823;50.588;8.462;2023-04-25T07:08:11;1.13;;;1.05;;
11533;SDS011;5823;50.588;8.462;2023-04-25T07:10:38;0.50;;;0.50;;
11533;SDS011;5823;50.588;8.462;2023-04-25T07:13:05;1.02;;;0.90;;
11533;SDS011;5823;50.588;8.462;2023-04-25T07:15:31;0.85;;;0.85;;
11533;SDS011;5823;50.588;8.462;2023-04-25T07:17:57;1.05;;;0.90;;
11533;SDS011;5823;50.588;8.462;2023-04-25T07:20:25;0.68;;;0.68;;
11533;SDS011;5823;50.588;8.462;2023-04-25T07:22:52;0.73;;;0.73;;
11533;SDS011;5823;50.588;8.462;2023-04-25T07:25:18;0.95;;;0.70;;
11533;SDS011;5823;50.588;8.462;2023-04-25T07:27:45;2.22;;;0.90;;
11533;SDS011;5823;50.588;8.462;2023-04-25T07:30:11;3.13;;;1.50;;
11533;SDS011;5823;50.588;8.462;2023-04-25T07:32:38;1.27;;;1.08;;
11533;SDS011;5823;50.588;8.462;2023-04-25T07:35:04;0.80;;;0.80;;
11533;SDS011;5823;50.588;8.462;2023-04-25T07:37:33;1.15;;;1.02;;
11533;SDS011;5823;50.588;8.462;2023-04-25T07:39:59;0.88;;;0.88;;
11533;SDS011;5823;50.588;8.462;2023-04-25T07:42:25;1.23;;;0.90;;
11533;SDS011;5823;50.588;8.462;2023-04-25T07:44:52;1.08;;;1.00;;
11533;SDS011;5823;50.588;8.462;2023-04-25T07:47:18;0.75;;;0.75;;
11533;SDS011;5823;50.588;8.462;2023-04-25T07:49:45;1.08;;;0.98;;
11533;SDS011;5823;50.588;8.462;2023-04-25T07:52:11;0.90;;;0.90;;
11533;SDS011;5823;50.588;8.462;2023-04-25T07:54:38;1.30;;;1.20;;
11533;SDS011;5823;50.588;8.462;2023-04-25T07:57:05;0.60;;;0.60;;
11533;SDS011;5823;50.588;8.462;2023-04-25T07:59:32;1.02;;;0.98;;
11533;SDS011;5823;50.588;8.462;2023-04-25T08:01:58;0.95;;;0.90;;
11533;SDS011;5823;50.588;8.462;2023-04-25T08:04:24;0.60;;;0.60;;
11533;SDS011;5823;50.588;8.462;2023-04-25T08:06:51;1.00;;;0.90;;
11533;SDS011;5823;50.588;8.462;2023-04-25T08:09:18;0.90;;;0.90;;
11533;SDS011;5823;50.588;8.462;2023-04-25T08:11:46;3.17;;;1.67;;
11533;SDS011;5823;50.588;8.462;2023-04-25T08:14:12;2.10;;;1.63;;
11533;SDS011;5823;50.588;8.462;2023-04-25T08:16:39;1.70;;;1.10;;
11533;SDS011;5823;50.588;8.462;2023-04-25T08:19:05;2.30;;;1.00;;
11533;SDS011;5823;50.588;8.462;2023-04-25T08:21:31;0.70;;;0.70;;
11533;SDS011;5823;50.588;8.462;2023-04-25T08:23:58;1.45;;;0.90;;
11533;SDS011;5823;50.588;8.462;2023-04-25T08:26:24;1.10;;;1.00;;
11533;SDS011;5823;50.588;8.462;2023-04-25T08:28:52;1.38;;;0.90;;
11533;SDS011;5823;50.588;8.462;2023-04-25T08:31:18;0.90;;;0.80;;
11533;SDS011;5823;50.588;8.462;2023-04-25T08:33:44;1.10;;;1.00;;
11533;SDS011;5823;50.588;8.462;2023-04-25T08:36:11;0.98;;;0.90;;
11533;SDS011;5823;50.588;8.462;2023-04-25T08:38:37;1.40;;;0.88;;
11533;SDS011;5823;50.588;8.462;2023-04-25T08:41:03;0.65;;;0.55;;
11533;SDS011;5823;50.588;8.462;2023-04-25T08:43:31;0.70;;;0.70;;
11533;SDS011;5823;50.588;8.462;2023-04-25T08:45:59;0.80;;;0.60;;
11533;SDS011;5823;50.588;8.462;2023-04-25T08:48:26;0.63;;;0.63;;
11533;SDS011;5823;50.588;8.462;2023-04-25T08:50:54;0.60;;;0.60;;
11533;SDS011;5823;50.588;8.462;2023-04-25T08:53:21;0.40;;;0.40;;
11533;SDS011;5823;50.588;8.462;2023-04-25T08:55:47;0.22;;;0.22;;
11533;SDS011;5823;50.588;8.462;2023-04-25T08:58:14;0.40;;;0.40;;
11533;SDS011;5823;50.588;8.462;2023-04-25T09:00:41;0.30;;;0.28;;
11533;SDS011;5823;50.588;8.462;2023-04-25T09:03:09;0.28;;;0.28;;
11533;SDS011;5823;50.588;8.462;2023-04-25T09:05:36;0.40;;;0.40;;
11533;SDS011;5823;50.588;8.462;2023-04-25T09:08:02;0.70;;;0.40;;
11533;SDS011;5823;50.588;8.462;2023-04-25T09:10:28;0.75;;;0.57;;
11533;SDS011;5823;50.588;8.462;2023-04-25T09:13:04;0.30;;;0.30;;
11533;SDS011;5823;50.588;8.462;2023-04-25T09:15:31;0.32;;;0.32;;
11533;SDS011;5823;50.588;8.462;2023-04-25T09:17:57;0.43;;;0.38;;
11533;SDS011;5823;50.588;8.462;2023-04-25T09:20:25;0.57;;;0.57;;
11533;SDS011;5823;50.588;8.462;2023-04-25T09:23:00;0.73;;;0.57;;
11533;SDS011;5823;50.588;8.462;2023-04-25T09:25:27;1.15;;;1.00;;
11533;SDS011;5823;50.588;8.462;2023-04-25T09:27:59;1.05;;;0.52;;
11533;SDS011;5823;50.588;8.462;2023-04-25T09:30:30;0.80;;;0.45;;
11533;SDS011;5823;50.588;8.462;2023-04-25T09:32:56;0.40;;;0.40;;
11533;SDS011;5823;50.588;8.462;2023-04-25T09:35:23;0.65;;;0.30;;
11533;SDS011;5823;50.588;8.462;2023-04-25T09:37:51;1.33;;;0.55;;
11533;SDS011;5823;50.588;8.462;2023-04-25T09:40:17;0.65;;;0.43;;
11533;SDS011;5823;50.588;8.462;2023-04-25T09:42:43;0.30;;;0.30;;
11533;SDS011;5823;50.588;8.462;2023-04-25T09:45:11;0.10;;;0.10;;
11533;SDS011;5823;50.588;8.462;2023-04-25T09:47:38;0.50;;;0.50;;
11533;SDS011;5823;50.588;8.462;2023-04-25T09:50:05;0.20;;;0.20;;
11533;SDS011;5823;50.588;8.462;2023-04-25T09:52:40;0.82;;;0.60;;
11533;SDS011;5823;50.588;8.462;2023-04-25T09:55:07;0.47;;;0.47;;
11533;SDS011;5823;50.588;8.462;2023-04-25T09:57:34;1.63;;;0.80;;
11533;SDS011;5823;50.588;8.462;2023-04-25T10:00:05;0.30;;;0.30;;
11533;SDS011;5823;50.588;8.462;2023-04-25T10:02:37;0.50;;;0.50;;
11533;SDS011;5823;50.588;8.462;2023-04-25T10:05:05;0.57;;;0.38;;
11533;SDS011;5823;50.588;8.462;2023-04-25T10:07:31;0.40;;;0.38;;
11533;SDS011;5823;50.588;8.462;2023-04-25T10:10:00;0.93;;;0.50;;
11533;SDS011;5823;50.588;8.462;2023-04-25T10:12:29;0.50;;;0.50;;
11533;SDS011;5823;50.588;8.462;2023-04-25T10:14:56;0.43;;;0.30;;
11533;SDS011;5823;50.588;8.462;2023-04-25T10:17:23;0.50;;;0.50;;
11533;SDS011;5823;50.588;8.462;2023-04-25T10:19:50;0.70;;;0.70;;
11533;SDS011;5823;50.588;8.462;2023-04-25T10:22:17;0.45;;;0.43;;
11533;SDS011;5823;50.588;8.462;2023-04-25T10:24:44;0.93;;;0.70;;
11533;SDS011;5823;50.588;8.462;2023-04-25T10:27:12;0.73;;;0.68;;
11533;SDS011;5823;50.588;8.462;2023-04-25T10:29:39;0.75;;;0.50;;
11533;SDS011;5823;50.588;8.462;2023-04-25T10:32:08;1.27;;;0.55;;
11533;SDS011;5823;50.588;8.462;2023-04-25T10:34:38;0.60;;;0.60;;
11533;SDS011;5823;50.588;8.462;2023-04-25T10:37:05;0.82;;;0.55;;
11533;SDS011;5823;50.588;8.462;2023-04-25T10:39:34;0.57;;;0.40;;
11533;SDS011;5823;50.588;8.462;2023-04-25T10:42:01;0.65;;;0.50;;
11533;SDS011;5823;50.588;8.462;2023-04-25T10:44:27;0.57;;;0.50;;
11533;SDS011;5823;50.588;8.462;2023-04-25T10:46:56;0.43;;;0.40;;
11533;SDS011;5823;50.588;8.462;2023-04-25T10:49:30;0.93;;;0.60;;
11533;SDS011;5823;50.588;8.462;2023-04-25T10:54:47;0.70;;;0.60;;
11533;SDS011;5823;50.588;8.462;2023-04-25T10:57:26;0.43;;;0.43;;
11533;SDS011;5823;50.588;8.462;2023-04-25T10:59:53;2.03;;;0.90;;
11533;SDS011;5823;50.588;8.462;2023-04-25T11:02:21;0.40;;;0.40;;
11533;SDS011;5823;50.588;8.462;2023-04-25T11:04:52;0.50;;;0.50;;
11533;SDS011;5823;50.588;8.462;2023-04-25T11:07:22;1.10;;;0.90;;
11533;SDS011;5823;50.588;8.462;2023-04-25T11:09:49;0.57;;;0.50;;
11533;SDS011;5823;50.588;8.462;2023-04-25T11:12:15;2.13;;;0.80;;
11533;SDS011;5823;50.588;8.462;2023-04-25T11:14:42;1.35;;;0.70;;
11533;SDS011;5823;50.588;8.462;2023-04-25T11:17:08;0.88;;;0.65;;
11533;SDS011;5823;50.588;8.462;2023-04-25T11:19:37;0.73;;;0.55;;
11533;SDS011;5823;50.588;8.462;2023-04-25T11:22:03;0.43;;;0.40;;
11533;SDS011;5823;50.588;8.462;2023-04-25T11:24:30;0.73;;;0.60;;
11533;SDS011;5823;50.588;8.462;2023-04-25T11:26:57;0.82;;;0.60;;
11533;SDS011;5823;50.588;8.462;2023-04-25T11:29:24;0.75;;;0.50;;
11533;SDS011;5823;50.588;8.462;2023-04-25T11:31:52;0.57;;;0.57;;
11533;SDS011;5823;50.588;8.462;2023-04-25T11:34:18;0.60;;;0.50;;
11533;SDS011;5823;50.588;8.462;2023-04-25T11:36:46;0.47;;;0.47;;
11533;SDS011;5823;50.588;8.462;2023-04-25T11:39:12;1.30;;;0.80;;
11533;SDS011;5823;50.588;8.462;2023-04-25T11:41:38;0.52;;;0.40;;
11533;SDS011;5823;50.588;8.462;2023-04-25T11:44:04;0.82;;;0.70;;
11533;SDS011;5823;50.588;8.462;2023-04-25T11:46:33;0.60;;;0.60;;
11533;SDS011;5823;50.588;8.462;2023-04-25T11:48:59;0.80;;;0.47;;
11533;SDS011;5823;50.588;8.462;2023-04-25T11:51:25;0.50;;;0.50;;
11533;SDS011;5823;50.588;8.462;2023-04-25T11:53:53;0.40;;;0.40;;
11533;SDS011;5823;50.588;8.462;2023-04-25T11:56:19;0.40;;;0.40;;
11533;SDS011;5823;50.588;8.462;2023-04-25T11:58:55;0.73;;;0.32;;
11533;SDS011;5823;50.588;8.462;2023-04-25T12:01:26;0.30;;;0.30;;
11533;SDS011;5823;50.588;8.462;2023-04-25T12:03:52;0.30;;;0.30;;
11533;SDS011;5823;50.588;8.462;2023-04-25T12:06:18;0.80;;;0.75;;
11533;SDS011;5823;50.588;8.462;2023-04-25T12:08:59;1.05;;;0.90;;
11533;SDS011;5823;50.588;8.462;2023-04-25T12:11:26;0.40;;;0.40;;
11533;SDS011;5823;50.588;8.462;2023-04-25T12:13:52;0.38;;;0.32;;
11533;SDS011;5823;50.588;8.462;2023-04-25T12:16:18;0.40;;;0.40;;
11533;SDS011;5823;50.588;8.462;2023-04-25T12:18:45;0.85;;;0.60;;
11533;SDS011;5823;50.588;8.462;2023-04-25T12:21:11;0.47;;;0.47;;
11533;SDS011;5823;50.588;8.462;2023-04-25T12:23:38;0.52;;;0.47;;
11533;SDS011;5823;50.588;8.462;2023-04-25T12:26:06;1.30;;;0.50;;
11533;SDS011;5823;50.588;8.462;2023-04-25T12:28:32;0.50;;;0.50;;
11533;SDS011;5823;50.588;8.462;2023-04-25T12:30:59;0.85;;;0.80;;
11533;SDS011;5823;50.588;8.462;2023-04-25T12:33:27;1.20;;;0.60;;
11533;SDS011;5823;50.588;8.462;2023-04-25T12:35:53;0.65;;;0.50;;
11533;SDS011;5823;50.588;8.462;2023-04-25T12:38:20;0.32;;;0.32;;
11533;SDS011;5823;50.588;8.462;2023-04-25T12:40:46;0.28;;;0.28;;
11533;SDS011;5823;50.588;8.462;2023-04-25T12:43:14;0.35;;;0.30;;
11533;SDS011;5823;50.588;8.462;2023-04-25T12:45:40;0.20;;;0.20;;
11533;SDS011;5823;50.588;8.462;2023-04-25T12:48:06;0.30;;;0.28;;
11533;SDS011;5823;50.588;8.462;2023-04-25T12:50:33;0.35;;;0.25;;
11533;SDS011;5823;50.588;8.462;2023-04-25T12:52:59;0.85;;;0.50;;
11533;SDS011;5823;50.588;8.462;2023-04-25T12:55:25;1.05;;;0.70;;
11533;SDS011;5823;50.588;8.462;2023-04-25T12:57:51;1.02;;;0.80;;
11533;SDS011;5823;50.588;8.462;2023-04-25T13:00:19;0.70;;;0.70;;
11533;SDS011;5823;50.588;8.462;2023-04-25T13:02:46;0.85;;;0.70;;
11533;SDS011;5823;50.588;8.462;2023-04-25T13:05:12;0.80;;;0.75;;
11533;SDS011;5823;50.588;8.462;2023-04-25T13:07:38;0.93;;;0.60;;
11533;SDS011;5823;50.588;8.462;2023-04-25T13:10:05;0.50;;;0.50;;
11533;SDS011;5823;50.588;8.462;2023-04-25T13:12:32;0.47;;;0.47;;
11533;SDS011;5823;50.588;8.462;2023-04-25T13:14:58;0.50;;;0.40;;
11533;SDS011;5823;50.588;8.462;2023-04-25T13:17:27;0.52;;;0.52;;
11533;SDS011;5823;50.588;8.462;2023-04-25T13:19:53;0.30;;;0.30;;
11533;SDS011;5823;50.588;8.462;2023-04-25T13:22:20;0.30;;;0.30;;
11533;SDS011;5823;50.588;8.462;2023-04-25T13:24:46;1.05;;;0.40;;
11533;SDS011;5823;50.588;8.462;2023-04-25T13:27:12;0.90;;;0.45;;
11533;SDS011;5823;50.588;8.462;2023-04-25T13:29:39;0.60;;;0.57;;
11533;SDS011;5823;50.588;8.462;2023-04-25T13:32:05;0.60;;;0.50;;
11533;SDS011;5823;50.588;8.462;2023-04-25T13:34:33;0.43;;;0.43;;
11533;SDS011;5823;50.588;8.462;2023-04-25T13:36:59;1.13;;;0.65;;
11533;SDS011;5823;50.588;8.462;2023-04-25T13:39:26;0.43;;;0.43;;
11533;SDS011;5823;50.588;8.462;2023-04-25T13:41:52;0.30;;;0.30;;
11533;SDS011;5823;50.588;8.462;2023-04-25T13:44:18;0.20;;;0.20;;
11533;SDS011;5823;50.588;8.462;2023-04-25T13:46:45;0.30;;;0.30;;
11533;SDS011;5823;50.588;8.462;2023-04-25T13:49:11;0.30;;;0.20;;
11533;SDS011;5823;50.588;8.462;2023-04-25T13:51:39;0.47;;;0.40;;
11533;SDS011;5823;50.588;8.462;2023-04-25T13:54:05;0.30;;;0.30;;
11533;SDS011;5823;50.588;8.462;2023-04-25T13:56:31;0.20;;;0.20;;
11533;SDS011;5823;50.588;8.462;2023-04-25T13:58:57;0.35;;;0.35;;
11533;SDS011;5823;50.588;8.462;2023-04-25T14:01:24;0.55;;;0.50;;
11533;SDS011;5823;50.588;8.462;2023-04-25T14:03:51;0.32;;;0.32;;
11533;SDS011;5823;50.588;8.462;2023-04-25T14:06:17;0.40;;;0.40;;
11533;SDS011;5823;50.588;8.462;2023-04-25T14:08:49;0.57;;;0.57;;
11533;SDS011;5823;50.588;8.462;2023-04-25T14:11:15;0.95;;;0.60;;
11533;SDS011;5823;50.588;8.462;2023-04-25T14:13:42;0.60;;;0.50;;
11533;SDS011;5823;50.588;8.462;2023-04-25T14:16:09;0.55;;;0.45;;
11533;SDS011;5823;50.588;8.462;2023-04-25T14:18:35;0.32;;;0.30;;
11533;SDS011;5823;50.588;8.462;2023-04-25T14:21:01;0.68;;;0.47;;
11533;SDS011;5823;50.588;8.462;2023-04-25T14:23:28;0.40;;;0.40;;
11533;SDS011;5823;50.588;8.462;2023-04-25T14:25:55;0.38;;;0.38;;
11533;SDS011;5823;50.588;8.462;2023-04-25T14:28:22;0.45;;;0.43;;
11533;SDS011;5823;50.588;8.462;2023-04-25T14:30:48;0.28;;;0.28;;
11533;SDS011;5823;50.588;8.462;2023-04-25T14:33:14;0.35;;;0.35;;
11533;SDS011;5823;50.588;8.462;2023-04-25T14:35:40;0.25;;;0.25;;
11533;SDS011;5823;50.588;8.462;2023-04-25T14:38:07;0.52;;;0.38;;
11533;SDS011;5823;50.588;8.462;2023-04-25T14:40:33;0.40;;;0.40;;
11533;SDS011;5823;50.588;8.462;2023-04-25T14:43:01;0.30;;;0.30;;
11533;SDS011;5823;50.588;8.462;2023-04-25T14:45:27;0.13;;;0.13;;
11533;SDS011;5823;50.588;8.462;2023-04-25T14:47:53;0.22;;;0.22;;
11533;SDS011;5823;50.588;8.462;2023-04-25T14:50:20;0.25;;;0.25;;
11533;SDS011;5823;50.588;8.462;2023-04-25T14:52:47;0.52;;;0.40;;
11533;SDS011;5823;50.588;8.462;2023-04-25T14:55:13;0.40;;;0.40;;
11533;SDS011;5823;50.588;8.462;2023-04-25T14:57:39;0.70;;;0.50;;
11533;SDS011;5823;50.588;8.462;2023-04-25T15:00:08;0.30;;;0.30;;